Route Details

Aircraft Information
Group: Hub to Hub
Types: B744, MD11, B763, B762, B752, B738
Route Data
Distance: 249nm
Duration: 1h 25m
Origin METAR: KSDF 100526Z 15004KT 1/2SM BR BKN002 BKN045 09/08 A3015 RMK AO2 SFC VIS 2 1/2 T00890083 $
Dest. METAR: KORD 100510Z 10008KT 5SM -DZ BR BKN008 OVC013 03/01 A3022 RMK AO2 P0000 T00280011 $
Freight Data
(for Dec 10, 2022)
Load Factor:
0%
Manifested Cargo: 0lbs
Financial History
Total Freight: 326,132lbs
Average Load: 0lbs/flt
Fuel Used: 42,411lbs
Avg. Fuel Used: 0lbs/flt
Fuel Expense: $35,566
Avg. Fuel Expense: $0
Avg. Fuel Cost: $0/lbs
Total Gross Income: $587,243
Pilot Pay: $218
Total Expenses: $68,263
Total Revenue: $482,870
Average Revenue: $0

Capitol Logistics 391




KSDF
Muhammad Ali International Airport
Louisville, Kentucky
KORD
Chicago O'Hare International Airport
Chicago, Illinois

Activity Log

Date Flight Route Aircraft Duration
11/23/2019 CPX2292 SDSHB1 SHB FWA WATSN3 B763 1h 10m
03/25/2018 CPX903 STREP3 STREP MZZ VEECK3 B744 0h 57m